sensor_id;sensor_type;location;lat;lon;timestamp;P1;durP1;ratioP1;P2;durP2;ratioP2
72201;SDS011;60105;54.956;73.412;2023-04-15T00:02:54;3.40;;;2.40;;
72201;SDS011;60105;54.956;73.412;2023-04-15T00:06:05;4.18;;;3.05;;
72201;SDS011;60105;54.956;73.412;2023-04-15T00:09:07;3.75;;;2.95;;
72201;SDS011;60105;54.956;73.412;2023-04-15T00:12:08;6.40;;;3.20;;
72201;SDS011;60105;54.956;73.412;2023-04-15T00:15:11;4.45;;;2.25;;
72201;SDS011;60105;54.956;73.412;2023-04-15T00:18:39;3.10;;;2.40;;
72201;SDS011;60105;54.956;73.412;2023-04-15T00:21:42;3.75;;;2.63;;
72201;SDS011;60105;54.956;73.412;2023-04-15T00:24:53;3.90;;;2.63;;
72201;SDS011;60105;54.956;73.412;2023-04-15T00:27:54;3.80;;;3.03;;
72201;SDS011;60105;54.956;73.412;2023-04-15T00:30:55;3.35;;;2.83;;
72201;SDS011;60105;54.956;73.412;2023-04-15T00:33:57;3.40;;;2.53;;
72201;SDS011;60105;54.956;73.412;2023-04-15T00:36:59;4.88;;;3.38;;
72201;SDS011;60105;54.956;73.412;2023-04-15T00:40:00;7.07;;;3.03;;
72201;SDS011;60105;54.956;73.412;2023-04-15T00:43:39;4.45;;;3.00;;
72201;SDS011;60105;54.956;73.412;2023-04-15T00:46:41;3.95;;;2.72;;
72201;SDS011;60105;54.956;73.412;2023-04-15T00:49:45;4.53;;;3.23;;
72201;SDS011;60105;54.956;73.412;2023-04-15T00:52:46;4.25;;;2.90;;
72201;SDS011;60105;54.956;73.412;2023-04-15T00:55:48;3.95;;;2.85;;
72201;SDS011;60105;54.956;73.412;2023-04-15T00:58:50;3.63;;;2.57;;
72201;SDS011;60105;54.956;73.412;2023-04-15T01:01:52;3.10;;;2.40;;
72201;SDS011;60105;54.956;73.412;2023-04-15T01:04:53;11.80;;;3.27;;
72201;SDS011;60105;54.956;73.412;2023-04-15T01:08:39;4.53;;;3.08;;
72201;SDS011;60105;54.956;73.412;2023-04-15T01:11:41;3.90;;;3.10;;
72201;SDS011;60105;54.956;73.412;2023-04-15T01:14:42;4.90;;;3.37;;
72201;SDS011;60105;54.956;73.412;2023-04-15T01:17:44;6.75;;;3.05;;
72201;SDS011;60105;54.956;73.412;2023-04-15T01:20:45;3.93;;;2.40;;
72201;SDS011;60105;54.956;73.412;2023-04-15T01:23:47;3.43;;;2.70;;
72201;SDS011;60105;54.956;73.412;2023-04-15T01:26:48;7.35;;;4.25;;
72201;SDS011;60105;54.956;73.412;2023-04-15T01:29:50;7.40;;;3.70;;
72201;SDS011;60105;54.956;73.412;2023-04-15T01:32:52;4.20;;;3.00;;
72201;SDS011;60105;54.956;73.412;2023-04-15T01:36:12;3.45;;;2.85;;
72201;SDS011;60105;54.956;73.412;2023-04-15T01:39:14;5.15;;;2.70;;
72201;SDS011;60105;54.956;73.412;2023-04-15T01:42:15;4.45;;;3.03;;
72201;SDS011;60105;54.956;73.412;2023-04-15T01:45:18;3.93;;;2.93;;
72201;SDS011;60105;54.956;73.412;2023-04-15T01:51:41;4.57;;;2.90;;
72201;SDS011;60105;54.956;73.412;2023-04-15T01:54:44;3.73;;;3.20;;
72201;SDS011;60105;54.956;73.412;2023-04-15T01:57:47;4.35;;;3.33;;
72201;SDS011;60105;54.956;73.412;2023-04-15T02:00:49;4.27;;;2.67;;
72201;SDS011;60105;54.956;73.412;2023-04-15T02:03:52;2.97;;;2.43;;
72201;SDS011;60105;54.956;73.412;2023-04-15T02:06:54;10.13;;;3.45;;
72201;SDS011;60105;54.956;73.412;2023-04-15T02:09:57;5.20;;;3.22;;
72201;SDS011;60105;54.956;73.412;2023-04-15T02:13:39;3.60;;;2.97;;
72201;SDS011;60105;54.956;73.412;2023-04-15T02:16:42;6.05;;;3.55;;
72201;SDS011;60105;54.956;73.412;2023-04-15T02:19:44;3.87;;;2.73;;
72201;SDS011;60105;54.956;73.412;2023-04-15T02:23:07;3.59;;;2.71;;
72201;SDS011;60105;54.956;73.412;2023-04-15T02:26:10;4.20;;;3.20;;
72201;SDS011;60105;54.956;73.412;2023-04-15T02:29:13;5.88;;;3.30;;
72201;SDS011;60105;54.956;73.412;2023-04-15T02:32:16;5.40;;;2.43;;
72201;SDS011;60105;54.956;73.412;2023-04-15T02:35:19;5.40;;;3.78;;
72201;SDS011;60105;54.956;73.412;2023-04-15T02:41:44;3.72;;;3.00;;
72201;SDS011;60105;54.956;73.412;2023-04-15T02:44:54;4.30;;;2.90;;
72201;SDS011;60105;54.956;73.412;2023-04-15T02:48:39;3.88;;;2.95;;
72201;SDS011;60105;54.956;73.412;2023-04-15T02:51:41;4.80;;;3.33;;
72201;SDS011;60105;54.956;73.412;2023-04-15T02:54:44;6.13;;;3.10;;
72201;SDS011;60105;54.956;73.412;2023-04-15T02:57:46;6.40;;;3.25;;
72201;SDS011;60105;54.956;73.412;2023-04-15T03:00:59;5.97;;;3.20;;
72201;SDS011;60105;54.956;73.412;2023-04-15T03:04:01;5.43;;;2.83;;
72201;SDS011;60105;54.956;73.412;2023-04-15T03:07:09;6.47;;;3.37;;
72201;SDS011;60105;54.956;73.412;2023-04-15T03:10:12;4.10;;;2.73;;
72201;SDS011;60105;54.956;73.412;2023-04-15T03:16:52;4.47;;;2.92;;
72201;SDS011;60105;54.956;73.412;2023-04-15T03:19:54;6.53;;;3.50;;
72201;SDS011;60105;54.956;73.412;2023-04-15T03:23:08;4.65;;;2.80;;
72201;SDS011;60105;54.956;73.412;2023-04-15T03:26:22;7.78;;;3.25;;
72201;SDS011;60105;54.956;73.412;2023-04-15T03:29:33;4.40;;;2.95;;
72201;SDS011;60105;54.956;73.412;2023-04-15T03:32:35;4.77;;;2.93;;
72201;SDS011;60105;54.956;73.412;2023-04-15T03:35:43;4.25;;;2.83;;
72201;SDS011;60105;54.956;73.412;2023-04-15T03:38:50;4.40;;;3.00;;
72201;SDS011;60105;54.956;73.412;2023-04-15T03:41:53;4.38;;;3.63;;
72201;SDS011;60105;54.956;73.412;2023-04-15T03:44:57;6.03;;;3.83;;
72201;SDS011;60105;54.956;73.412;2023-04-15T03:48:39;3.65;;;2.83;;
72201;SDS011;60105;54.956;73.412;2023-04-15T03:51:46;4.13;;;2.73;;
72201;SDS011;60105;54.956;73.412;2023-04-15T03:54:48;8.13;;;3.40;;
72201;SDS011;60105;54.956;73.412;2023-04-15T03:57:51;4.20;;;2.58;;
72201;SDS011;60105;54.956;73.412;2023-04-15T04:00:53;4.60;;;3.00;;
72201;SDS011;60105;54.956;73.412;2023-04-15T04:04:01;8.13;;;2.87;;
72201;SDS011;60105;54.956;73.412;2023-04-15T04:07:03;5.55;;;3.42;;
72201;SDS011;60105;54.956;73.412;2023-04-15T04:10:06;22.70;;;6.15;;
72201;SDS011;60105;54.956;73.412;2023-04-15T04:13:39;17.65;;;4.80;;
72201;SDS011;60105;54.956;73.412;2023-04-15T04:16:41;6.53;;;3.20;;
72201;SDS011;60105;54.956;73.412;2023-04-15T04:19:49;5.45;;;3.15;;
72201;SDS011;60105;54.956;73.412;2023-04-15T04:23:07;7.15;;;3.60;;
72201;SDS011;60105;54.956;73.412;2023-04-15T04:26:10;7.30;;;2.70;;
72201;SDS011;60105;54.956;73.412;2023-04-15T04:29:12;7.18;;;3.38;;
72201;SDS011;60105;54.956;73.412;2023-04-15T04:32:19;7.53;;;3.50;;
72201;SDS011;60105;54.956;73.412;2023-04-15T04:35:32;9.87;;;3.03;;
72201;SDS011;60105;54.956;73.412;2023-04-15T04:41:41;5.63;;;2.88;;
72201;SDS011;60105;54.956;73.412;2023-04-15T04:44:44;6.38;;;3.38;;
72201;SDS011;60105;54.956;73.412;2023-04-15T04:48:39;9.60;;;3.40;;
72201;SDS011;60105;54.956;73.412;2023-04-15T04:51:42;4.95;;;3.72;;
72201;SDS011;60105;54.956;73.412;2023-04-15T04:54:48;22.38;;;4.47;;
72201;SDS011;60105;54.956;73.412;2023-04-15T04:58:39;7.75;;;3.55;;
72201;SDS011;60105;54.956;73.412;2023-04-15T05:01:51;7.72;;;3.38;;
72201;SDS011;60105;54.956;73.412;2023-04-15T05:04:54;25.33;;;6.75;;
72201;SDS011;60105;54.956;73.412;2023-04-15T05:08:39;13.29;;;3.67;;
72201;SDS011;60105;54.956;73.412;2023-04-15T05:11:42;9.27;;;4.60;;
72201;SDS011;60105;54.956;73.412;2023-04-15T05:14:49;19.05;;;4.40;;
72201;SDS011;60105;54.956;73.412;2023-04-15T05:17:52;13.47;;;3.43;;
72201;SDS011;60105;54.956;73.412;2023-04-15T05:20:54;8.35;;;3.22;;
72201;SDS011;60105;54.956;73.412;2023-04-15T05:23:57;7.97;;;3.53;;
72201;SDS011;60105;54.956;73.412;2023-04-15T05:27:04;18.80;;;4.95;;
72201;SDS011;60105;54.956;73.412;2023-04-15T05:30:11;16.20;;;4.73;;
72201;SDS011;60105;54.956;73.412;2023-04-15T05:33:39;7.00;;;4.10;;
72201;SDS011;60105;54.956;73.412;2023-04-15T05:36:41;10.57;;;4.10;;
72201;SDS011;60105;54.956;73.412;2023-04-15T05:39:44;24.10;;;5.03;;
72201;SDS011;60105;54.956;73.412;2023-04-15T05:42:46;27.52;;;5.78;;
72201;SDS011;60105;54.956;73.412;2023-04-15T05:45:49;10.85;;;2.90;;
72201;SDS011;60105;54.956;73.412;2023-04-15T05:49:01;18.17;;;4.70;;
72201;SDS011;60105;54.956;73.412;2023-04-15T05:52:04;18.67;;;5.45;;
72201;SDS011;60105;54.956;73.412;2023-04-15T05:55:07;9.60;;;3.90;;
72201;SDS011;60105;54.956;73.412;2023-04-15T06:01:42;15.57;;;3.70;;
72201;SDS011;60105;54.956;73.412;2023-04-15T06:04:44;8.20;;;3.47;;
72201;SDS011;60105;54.956;73.412;2023-04-15T06:07:50;13.27;;;3.30;;
72201;SDS011;60105;54.956;73.412;2023-04-15T06:10:52;6.30;;;3.60;;
72201;SDS011;60105;54.956;73.412;2023-04-15T06:13:55;8.60;;;3.70;;
72201;SDS011;60105;54.956;73.412;2023-04-15T06:16:58;10.03;;;4.07;;
72201;SDS011;60105;54.956;73.412;2023-04-15T06:20:00;10.20;;;3.58;;
72201;SDS011;60105;54.956;73.412;2023-04-15T06:23:07;10.80;;;4.18;;
72201;SDS011;60105;54.956;73.412;2023-04-15T06:26:10;7.07;;;2.60;;
72201;SDS011;60105;54.956;73.412;2023-04-15T06:29:12;8.77;;;4.20;;
72201;SDS011;60105;54.956;73.412;2023-04-15T06:32:14;17.80;;;5.45;;
72201;SDS011;60105;54.956;73.412;2023-04-15T06:35:22;16.95;;;4.57;;
72201;SDS011;60105;54.956;73.412;2023-04-15T06:41:41;4.63;;;3.28;;
72201;SDS011;60105;54.956;73.412;2023-04-15T06:44:54;17.38;;;3.75;;
72201;SDS011;60105;54.956;73.412;2023-04-15T06:48:39;18.59;;;4.69;;
72201;SDS011;60105;54.956;73.412;2023-04-15T06:51:42;22.13;;;5.07;;
72201;SDS011;60105;54.956;73.412;2023-04-15T06:54:44;8.68;;;3.33;;
72201;SDS011;60105;54.956;73.412;2023-04-15T06:57:47;23.35;;;5.05;;
72201;SDS011;60105;54.956;73.412;2023-04-15T07:00:49;7.77;;;3.63;;
72201;SDS011;60105;54.956;73.412;2023-04-15T07:03:52;17.15;;;3.10;;
72201;SDS011;60105;54.956;73.412;2023-04-15T07:06:55;12.45;;;3.90;;
72201;SDS011;60105;54.956;73.412;2023-04-15T07:10:08;14.80;;;4.55;;
72201;SDS011;60105;54.956;73.412;2023-04-15T07:13:39;19.30;;;4.55;;
72201;SDS011;60105;54.956;73.412;2023-04-15T07:16:50;7.30;;;2.63;;
72201;SDS011;60105;54.956;73.412;2023-04-15T07:19:52;17.20;;;4.70;;
72201;SDS011;60105;54.956;73.412;2023-04-15T07:23:07;21.26;;;4.60;;
72201;SDS011;60105;54.956;73.412;2023-04-15T07:26:10;11.25;;;3.58;;
72201;SDS011;60105;54.956;73.412;2023-04-15T07:29:13;17.85;;;4.15;;
72201;SDS011;60105;54.956;73.412;2023-04-15T07:32:21;11.23;;;4.38;;
72201;SDS011;60105;54.956;73.412;2023-04-15T07:35:23;17.95;;;4.28;;
72201;SDS011;60105;54.956;73.412;2023-04-15T07:41:41;21.08;;;3.50;;
72201;SDS011;60105;54.956;73.412;2023-04-15T07:44:43;12.27;;;3.15;;
72201;SDS011;60105;54.956;73.412;2023-04-15T07:47:46;12.43;;;4.05;;
72201;SDS011;60105;54.956;73.412;2023-04-15T07:50:58;9.30;;;4.10;;
72201;SDS011;60105;54.956;73.412;2023-04-15T07:54:03;11.43;;;4.43;;
72201;SDS011;60105;54.956;73.412;2023-04-15T07:57:05;11.10;;;3.70;;
72201;SDS011;60105;54.956;73.412;2023-04-15T08:00:08;30.10;;;5.77;;
72201;SDS011;60105;54.956;73.412;2023-04-15T08:06:41;9.82;;;2.88;;
72201;SDS011;60105;54.956;73.412;2023-04-15T08:09:44;15.73;;;4.38;;
72201;SDS011;60105;54.956;73.412;2023-04-15T08:12:47;15.23;;;3.50;;
72201;SDS011;60105;54.956;73.412;2023-04-15T08:15:52;4.53;;;3.00;;
72201;SDS011;60105;54.956;73.412;2023-04-15T08:19:24;3.40;;;2.50;;
72201;SDS011;60105;54.956;73.412;2023-04-15T08:22:27;6.63;;;3.03;;
72201;SDS011;60105;54.956;73.412;2023-04-15T08:25:30;11.57;;;3.63;;
72201;SDS011;60105;54.956;73.412;2023-04-15T08:31:42;9.07;;;4.37;;
72201;SDS011;60105;54.956;73.412;2023-04-15T08:34:45;5.60;;;3.20;;
72201;SDS011;60105;54.956;73.412;2023-04-15T08:37:48;4.10;;;2.37;;
72201;SDS011;60105;54.956;73.412;2023-04-15T08:40:57;3.58;;;2.38;;
72201;SDS011;60105;54.956;73.412;2023-04-15T08:44:03;8.30;;;2.60;;
72201;SDS011;60105;54.956;73.412;2023-04-15T08:47:07;4.72;;;2.33;;
72201;SDS011;60105;54.956;73.412;2023-04-15T08:50:20;5.40;;;2.90;;
72201;SDS011;60105;54.956;73.412;2023-04-15T08:53:23;3.43;;;2.57;;
72201;SDS011;60105;54.956;73.412;2023-04-15T08:56:27;4.53;;;2.85;;
72201;SDS011;60105;54.956;73.412;2023-04-15T08:59:33;5.10;;;2.38;;
72201;SDS011;60105;54.956;73.412;2023-04-15T09:02:36;4.47;;;2.97;;
72201;SDS011;60105;54.956;73.412;2023-04-15T09:05:39;9.37;;;3.00;;
72201;SDS011;60105;54.956;73.412;2023-04-15T09:08:42;8.70;;;1.80;;
72201;SDS011;60105;54.956;73.412;2023-04-15T09:11:44;5.97;;;2.55;;
72201;SDS011;60105;54.956;73.412;2023-04-15T09:14:47;8.40;;;3.05;;
72201;SDS011;60105;54.956;73.412;2023-04-15T09:17:50;15.00;;;4.57;;
72201;SDS011;60105;54.956;73.412;2023-04-15T09:20:52;7.03;;;3.28;;
72201;SDS011;60105;54.956;73.412;2023-04-15T09:23:58;4.15;;;2.47;;
72201;SDS011;60105;54.956;73.412;2023-04-15T09:27:02;7.85;;;3.00;;
72201;SDS011;60105;54.956;73.412;2023-04-15T09:30:07;6.45;;;2.50;;
72201;SDS011;60105;54.956;73.412;2023-04-15T09:36:55;5.75;;;3.20;;
72201;SDS011;60105;54.956;73.412;2023-04-15T09:39:58;5.20;;;3.13;;
72201;SDS011;60105;54.956;73.412;2023-04-15T09:43:39;4.82;;;3.05;;
72201;SDS011;60105;54.956;73.412;2023-04-15T09:46:42;3.85;;;2.72;;
72201;SDS011;60105;54.956;73.412;2023-04-15T09:49:55;5.28;;;2.80;;
72201;SDS011;60105;54.956;73.412;2023-04-15T09:53:10;4.66;;;2.26;;
72201;SDS011;60105;54.956;73.412;2023-04-15T09:56:21;8.73;;;2.80;;
72201;SDS011;60105;54.956;73.412;2023-04-15T09:59:24;5.50;;;2.95;;
72201;SDS011;60105;54.956;73.412;2023-04-15T10:02:31;5.32;;;2.60;;
72201;SDS011;60105;54.956;73.412;2023-04-15T10:05:34;8.80;;;3.20;;
72201;SDS011;60105;54.956;73.412;2023-04-15T10:11:42;5.75;;;2.75;;
72201;SDS011;60105;54.956;73.412;2023-04-15T10:14:51;7.37;;;3.37;;
72201;SDS011;60105;54.956;73.412;2023-04-15T10:18:42;7.00;;;3.10;;
72201;SDS011;60105;54.956;73.412;2023-04-15T10:21:54;5.45;;;3.13;;
72201;SDS011;60105;54.956;73.412;2023-04-15T10:24:57;4.00;;;2.63;;
72201;SDS011;60105;54.956;73.412;2023-04-15T10:28:39;4.47;;;3.15;;
72201;SDS011;60105;54.956;73.412;2023-04-15T10:31:42;4.85;;;3.35;;
72201;SDS011;60105;54.956;73.412;2023-04-15T10:34:46;6.43;;;3.37;;
72201;SDS011;60105;54.956;73.412;2023-04-15T10:37:50;4.47;;;2.97;;
72201;SDS011;60105;54.956;73.412;2023-04-15T10:40:52;11.63;;;4.28;;
72201;SDS011;60105;54.956;73.412;2023-04-15T10:43:56;5.83;;;2.93;;
72201;SDS011;60105;54.956;73.412;2023-04-15T10:47:05;4.45;;;2.72;;
72201;SDS011;60105;54.956;73.412;2023-04-15T10:50:13;5.03;;;3.20;;
72201;SDS011;60105;54.956;73.412;2023-04-15T10:53:21;5.67;;;3.60;;
72201;SDS011;60105;54.956;73.412;2023-04-15T10:56:29;4.18;;;2.75;;
72201;SDS011;60105;54.956;73.412;2023-04-15T10:59:37;5.78;;;2.80;;
72201;SDS011;60105;54.956;73.412;2023-04-15T11:03:39;8.73;;;3.30;;
72201;SDS011;60105;54.956;73.412;2023-04-15T11:06:44;4.57;;;3.17;;
72201;SDS011;60105;54.956;73.412;2023-04-15T11:09:47;5.75;;;2.70;;
72201;SDS011;60105;54.956;73.412;2023-04-15T11:13:46;7.60;;;3.40;;
72201;SDS011;60105;54.956;73.412;2023-04-15T11:16:50;4.78;;;2.78;;
72201;SDS011;60105;54.956;73.412;2023-04-15T11:19:53;3.97;;;2.88;;
72201;SDS011;60105;54.956;73.412;2023-04-15T11:23:07;4.90;;;2.84;;
72201;SDS011;60105;54.956;73.412;2023-04-15T11:26:10;4.65;;;2.92;;
72201;SDS011;60105;54.956;73.412;2023-04-15T11:29:18;5.55;;;3.22;;
72201;SDS011;60105;54.956;73.412;2023-04-15T11:32:22;6.17;;;3.17;;
72201;SDS011;60105;54.956;73.412;2023-04-15T11:35:24;5.50;;;2.92;;
72201;SDS011;60105;54.956;73.412;2023-04-15T11:41:45;6.88;;;3.15;;
72201;SDS011;60105;54.956;73.412;2023-04-15T11:44:48;4.90;;;2.60;;
72201;SDS011;60105;54.956;73.412;2023-04-15T11:47:51;6.70;;;3.37;;
72201;SDS011;60105;54.956;73.412;2023-04-15T11:51:01;4.57;;;2.95;;
72201;SDS011;60105;54.956;73.412;2023-04-15T11:54:06;7.33;;;3.27;;
72201;SDS011;60105;54.956;73.412;2023-04-15T11:57:08;5.32;;;3.33;;
72201;SDS011;60105;54.956;73.412;2023-04-15T12:00:09;6.13;;;3.73;;
72201;SDS011;60105;54.956;73.412;2023-04-15T12:03:39;5.38;;;2.88;;
72201;SDS011;60105;54.956;73.412;2023-04-15T12:06:48;6.43;;;3.53;;
72201;SDS011;60105;54.956;73.412;2023-04-15T12:09:54;5.28;;;2.83;;
72201;SDS011;60105;54.956;73.412;2023-04-15T12:13:42;8.91;;;4.06;;
72201;SDS011;60105;54.956;73.412;2023-04-15T12:16:45;5.93;;;4.15;;
72201;SDS011;60105;54.956;73.412;2023-04-15T12:19:54;11.03;;;5.27;;
72201;SDS011;60105;54.956;73.412;2023-04-15T12:23:07;9.94;;;4.99;;
72201;SDS011;60105;54.956;73.412;2023-04-15T12:26:27;9.63;;;5.43;;
72201;SDS011;60105;54.956;73.412;2023-04-15T12:29:29;9.53;;;4.37;;
72201;SDS011;60105;54.956;73.412;2023-04-15T12:32:33;7.63;;;3.75;;
72201;SDS011;60105;54.956;73.412;2023-04-15T12:35:35;8.20;;;4.17;;
72201;SDS011;60105;54.956;73.412;2023-04-15T12:41:40;7.18;;;3.80;;
72201;SDS011;60105;54.956;73.412;2023-04-15T12:44:41;6.72;;;3.97;;
72201;SDS011;60105;54.956;73.412;2023-04-15T12:47:42;7.03;;;4.57;;
72201;SDS011;60105;54.956;73.412;2023-04-15T12:50:50;10.63;;;4.65;;
72201;SDS011;60105;54.956;73.412;2023-04-15T12:53:56;11.25;;;4.95;;
72201;SDS011;60105;54.956;73.412;2023-04-15T12:57:03;10.10;;;5.32;;
72201;SDS011;60105;54.956;73.412;2023-04-15T13:00:07;14.18;;;5.35;;
72201;SDS011;60105;54.956;73.412;2023-04-15T13:03:39;10.32;;;5.07;;
72201;SDS011;60105;54.956;73.412;2023-04-15T13:06:40;10.65;;;5.20;;
72201;SDS011;60105;54.956;73.412;2023-04-15T13:09:51;12.25;;;5.35;;
72201;SDS011;60105;54.956;73.412;2023-04-15T13:12:52;10.50;;;5.93;;
72201;SDS011;60105;54.956;73.412;2023-04-15T13:15:53;8.50;;;4.93;;
72201;SDS011;60105;54.956;73.412;2023-04-15T13:18:55;10.40;;;5.20;;
72201;SDS011;60105;54.956;73.412;2023-04-15T13:22:01;7.57;;;4.57;;
72201;SDS011;60105;54.956;73.412;2023-04-15T13:25:02;10.30;;;4.50;;
72201;SDS011;60105;54.956;73.412;2023-04-15T13:28:38;8.18;;;5.05;;
72201;SDS011;60105;54.956;73.412;2023-04-15T13:31:40;12.48;;;4.45;;
72201;SDS011;60105;54.956;73.412;2023-04-15T13:34:41;10.70;;;5.27;;
72201;SDS011;60105;54.956;73.412;2023-04-15T13:37:42;10.90;;;4.63;;
72201;SDS011;60105;54.956;73.412;2023-04-15T13:40:53;13.73;;;5.47;;
72201;SDS011;60105;54.956;73.412;2023-04-15T13:44:04;10.80;;;5.57;;
72201;SDS011;60105;54.956;73.412;2023-04-15T13:47:06;15.50;;;6.40;;
72201;SDS011;60105;54.956;73.412;2023-04-15T13:50:08;7.80;;;4.43;;
72201;SDS011;60105;54.956;73.412;2023-04-15T13:53:12;14.72;;;3.94;;
72201;SDS011;60105;54.956;73.412;2023-04-15T13:56:14;10.38;;;4.32;;
72201;SDS011;60105;54.956;73.412;2023-04-15T13:59:15;14.57;;;5.03;;
72201;SDS011;60105;54.956;73.412;2023-04-15T14:02:16;11.38;;;4.80;;
72201;SDS011;60105;54.956;73.412;2023-04-15T14:05:27;11.27;;;5.43;;
72201;SDS011;60105;54.956;73.412;2023-04-15T14:11:49;11.20;;;5.70;;
72201;SDS011;60105;54.956;73.412;2023-04-15T14:14:55;7.50;;;4.13;;
72201;SDS011;60105;54.956;73.412;2023-04-15T14:18:39;8.50;;;4.00;;
72201;SDS011;60105;54.956;73.412;2023-04-15T14:21:46;10.98;;;4.70;;
72201;SDS011;60105;54.956;73.412;2023-04-15T14:24:47;9.60;;;5.20;;
72201;SDS011;60105;54.956;73.412;2023-04-15T14:27:54;11.02;;;4.78;;
72201;SDS011;60105;54.956;73.412;2023-04-15T14:30:55;8.97;;;4.90;;
72201;SDS011;60105;54.956;73.412;2023-04-15T14:33:57;19.90;;;7.33;;
72201;SDS011;60105;54.956;73.412;2023-04-15T14:36:58;20.17;;;8.18;;
72201;SDS011;60105;54.956;73.412;2023-04-15T14:40:04;21.55;;;9.88;;
72201;SDS011;60105;54.956;73.412;2023-04-15T14:46:39;21.37;;;7.53;;
72201;SDS011;60105;54.956;73.412;2023-04-15T14:49:51;14.05;;;7.30;;
72201;SDS011;60105;54.956;73.412;2023-04-15T14:52:52;11.13;;;5.30;;
72201;SDS011;60105;54.956;73.412;2023-04-15T14:56:03;11.30;;;6.22;;
72201;SDS011;60105;54.956;73.412;2023-04-15T14:59:05;13.00;;;5.93;;
72201;SDS011;60105;54.956;73.412;2023-04-15T15:02:07;14.53;;;6.97;;
72201;SDS011;60105;54.956;73.412;2023-04-15T15:05:09;13.38;;;6.18;;
72201;SDS011;60105;54.956;73.412;2023-04-15T15:08:38;9.43;;;5.05;;
72201;SDS011;60105;54.956;73.412;2023-04-15T15:11:50;12.10;;;7.07;;
72201;SDS011;60105;54.956;73.412;2023-04-15T15:14:51;12.43;;;7.22;;
72201;SDS011;60105;54.956;73.412;2023-04-15T15:17:53;12.85;;;7.03;;
72201;SDS011;60105;54.956;73.412;2023-04-15T15:20:54;15.52;;;7.95;;
72201;SDS011;60105;54.956;73.412;2023-04-15T15:23:55;17.70;;;8.13;;
72201;SDS011;60105;54.956;73.412;2023-04-15T15:26:57;15.80;;;7.45;;
72201;SDS011;60105;54.956;73.412;2023-04-15T15:30:03;18.50;;;8.85;;
72201;SDS011;60105;54.956;73.412;2023-04-15T15:33:38;15.88;;;7.80;;
72201;SDS011;60105;54.956;73.412;2023-04-15T15:36:40;17.70;;;8.38;;
72201;SDS011;60105;54.956;73.412;2023-04-15T15:39:41;13.88;;;7.65;;
72201;SDS011;60105;54.956;73.412;2023-04-15T15:42:43;16.00;;;7.30;;
72201;SDS011;60105;54.956;73.412;2023-04-15T15:45:44;15.55;;;8.13;;
72201;SDS011;60105;54.956;73.412;2023-04-15T15:48:46;15.68;;;6.85;;
72201;SDS011;60105;54.956;73.412;2023-04-15T15:51:48;14.50;;;7.20;;
72201;SDS011;60105;54.956;73.412;2023-04-15T15:54:49;19.13;;;8.43;;
72201;SDS011;60105;54.956;73.412;2023-04-15T15:57:50;21.75;;;8.68;;
72201;SDS011;60105;54.956;73.412;2023-04-15T16:00:52;17.20;;;8.63;;
72201;SDS011;60105;54.956;73.412;2023-04-15T16:03:53;15.50;;;7.57;;
72201;SDS011;60105;54.956;73.412;2023-04-15T16:06:59;22.80;;;8.23;;
72201;SDS011;60105;54.956;73.412;2023-04-15T16:10:05;16.20;;;8.20;;
72201;SDS011;60105;54.956;73.412;2023-04-15T16:13:38;16.50;;;8.05;;
72201;SDS011;60105;54.956;73.412;2023-04-15T16:16:50;19.58;;;8.10;;
72201;SDS011;60105;54.956;73.412;2023-04-15T16:19:52;18.90;;;8.97;;
72201;SDS011;60105;54.956;73.412;2023-04-15T16:22:56;21.00;;;8.55;;
72201;SDS011;60105;54.956;73.412;2023-04-15T16:25:58;22.70;;;7.53;;
72201;SDS011;60105;54.956;73.412;2023-04-15T16:29:00;21.80;;;8.47;;
72201;SDS011;60105;54.956;73.412;2023-04-15T16:32:01;21.40;;;8.25;;
72201;SDS011;60105;54.956;73.412;2023-04-15T16:35:02;19.30;;;8.93;;
72201;SDS011;60105;54.956;73.412;2023-04-15T16:38:38;13.40;;;6.72;;
72201;SDS011;60105;54.956;73.412;2023-04-15T16:41:40;16.38;;;6.47;;
72201;SDS011;60105;54.956;73.412;2023-04-15T16:44:42;18.65;;;7.30;;
72201;SDS011;60105;54.956;73.412;2023-04-15T16:47:53;15.17;;;7.00;;
72201;SDS011;60105;54.956;73.412;2023-04-15T16:50:56;16.08;;;7.07;;
72201;SDS011;60105;54.956;73.412;2023-04-15T16:53:57;17.67;;;7.40;;
72201;SDS011;60105;54.956;73.412;2023-04-15T16:56:59;12.43;;;6.43;;
72201;SDS011;60105;54.956;73.412;2023-04-15T17:00:07;22.37;;;6.90;;
72201;SDS011;60105;54.956;73.412;2023-04-15T17:03:38;14.60;;;7.13;;
72201;SDS011;60105;54.956;73.412;2023-04-15T17:06:40;11.25;;;6.35;;
72201;SDS011;60105;54.956;73.412;2023-04-15T17:09:41;17.83;;;6.80;;
72201;SDS011;60105;54.956;73.412;2023-04-15T17:12:42;19.20;;;7.13;;
72201;SDS011;60105;54.956;73.412;2023-04-15T17:15:44;13.33;;;6.53;;
72201;SDS011;60105;54.956;73.412;2023-04-15T17:19:05;13.75;;;6.28;;
72201;SDS011;60105;54.956;73.412;2023-04-15T17:22:17;14.47;;;4.80;;
72201;SDS011;60105;54.956;73.412;2023-04-15T17:25:21;11.88;;;5.93;;
72201;SDS011;60105;54.956;73.412;2023-04-15T17:31:42;13.05;;;5.65;;
72201;SDS011;60105;54.956;73.412;2023-04-15T17:35:04;15.10;;;5.53;;
72201;SDS011;60105;54.956;73.412;2023-04-15T17:41:59;21.83;;;6.43;;
72201;SDS011;60105;54.956;73.412;2023-04-15T17:45:21;18.88;;;6.80;;
72201;SDS011;60105;54.956;73.412;2023-04-15T17:48:47;13.57;;;5.20;;
72201;SDS011;60105;54.956;73.412;2023-04-15T17:52:14;13.23;;;5.60;;
72201;SDS011;60105;54.956;73.412;2023-04-15T17:55:35;13.00;;;6.90;;
72201;SDS011;60105;54.956;73.412;2023-04-15T17:58:57;9.77;;;5.07;;
72201;SDS011;60105;54.956;73.412;2023-04-15T18:02:30;11.88;;;5.88;;
72201;SDS011;60105;54.956;73.412;2023-04-15T18:05:51;10.07;;;5.53;;
72201;SDS011;60105;54.956;73.412;2023-04-15T18:09:12;12.70;;;5.77;;
72201;SDS011;60105;54.956;73.412;2023-04-15T18:12:42;8.77;;;4.13;;
72201;SDS011;60105;54.956;73.412;2023-04-15T18:16:04;11.17;;;5.00;;
72201;SDS011;60105;54.956;73.412;2023-04-15T18:19:25;10.77;;;5.03;;
72201;SDS011;60105;54.956;73.412;2023-04-15T18:22:26;11.65;;;5.15;;
72201;SDS011;60105;54.956;73.412;2023-04-15T18:25:28;7.70;;;4.85;;
72201;SDS011;60105;54.956;73.412;2023-04-15T18:31:40;12.45;;;5.03;;
72201;SDS011;60105;54.956;73.412;2023-04-15T18:34:41;9.75;;;5.50;;
72201;SDS011;60105;54.956;73.412;2023-04-15T18:37:43;9.80;;;5.97;;
72201;SDS011;60105;54.956;73.412;2023-04-15T18:40:44;8.63;;;5.15;;
72201;SDS011;60105;54.956;73.412;2023-04-15T18:43:45;6.20;;;3.25;;
72201;SDS011;60105;54.956;73.412;2023-04-15T18:46:47;10.23;;;4.90;;
72201;SDS011;60105;54.956;73.412;2023-04-15T18:49:49;8.95;;;3.92;;
72201;SDS011;60105;54.956;73.412;2023-04-15T18:53:07;6.74;;;4.10;;
72201;SDS011;60105;54.956;73.412;2023-04-15T18:56:08;9.13;;;5.07;;
72201;SDS011;60105;54.956;73.412;2023-04-15T18:59:10;13.07;;;5.63;;
72201;SDS011;60105;54.956;73.412;2023-04-15T19:02:12;9.70;;;5.30;;
72201;SDS011;60105;54.956;73.412;2023-04-15T19:05:13;14.37;;;5.37;;
72201;SDS011;60105;54.956;73.412;2023-04-15T19:11:45;9.50;;;4.68;;
72201;SDS011;60105;54.956;73.412;2023-04-15T19:14:48;12.20;;;5.57;;
72201;SDS011;60105;54.956;73.412;2023-04-15T19:17:49;6.63;;;4.50;;
72201;SDS011;60105;54.956;73.412;2023-04-15T19:20:55;6.73;;;4.10;;
72201;SDS011;60105;54.956;73.412;2023-04-15T19:24:02;7.63;;;4.23;;
72201;SDS011;60105;54.956;73.412;2023-04-15T19:27:04;8.27;;;4.43;;
72201;SDS011;60105;54.956;73.412;2023-04-15T19:30:06;7.90;;;4.22;;
72201;SDS011;60105;54.956;73.412;2023-04-15T19:36:40;9.13;;;4.10;;